aviador You're here:

YBMA Decoded Metar

MOUNT ISA in AUSTRALIA
Report Time2017-08-24 08:30:00
UTC Time2017-08-24 08:52:45
Flight Rules vfr VFR
Wind170° at 17 kt
W.Decomp.*RWY 16: 16.9 kt HW 1.5 kt RCW
W.Rank170° ranks 1
Current wind is above 170° avg. (9.0)
Visibility9999 m
Phenomena:N/A
Clouds:N/A
Expected CloudBase > 10,000 ft AGL from Temp-Dew spread
CeilingNone
Temp23°C (ISA +10)
Dew Point-2°C (19% RH)
AAT14.6°C
QNH1018 hPa
Density Alt2,228 ft
Elevation1,129 ft
Report Wrong Elevation
Raw Report
YBMA 240830Z AUTO 17017KT 9999 // NCD 23/M02 Q1018=

Extra information for YBMA:More info

Metar Taf Metar & Taf Last 4 Metars F.Rules Stats Wind Profile Meteogram Temp Stats Airport Information Weather charts Add Link Nearby VenuesMetar ALERT Operation Metar Decoded Social comments